Time;durP1;ratioP1;P1;durP2;ratioP2;P2;SDS_P1;SDS_P2;PMS_P1;PMS_P2;Temp;Humidity;BMP_temperature;BMP_pressure;BME280_temperature;BME280_humidity;BME280_pressure;Samples;Min_cycle;Max_cycle;Signal;HPM_P1;HPM_P2
2022/10/03 00:01:26;;;;;;;12.00;7.13;;;10.30;99.90;;;;;;5116765;28;20203;-86
2022/10/03 00:04:07;;;;;;;12.87;7.10;;;10.30;99.90;;;;;;5081808;28;20227;-86
2022/10/03 00:06:44;;;;;;;12.53;7.30;;;10.20;99.90;;;;;;5116120;28;20687;-86
2022/10/03 00:09:26;;;;;;;13.10;7.47;;;10.20;99.90;;;;;;5116473;28;20548;-85
2022/10/03 00:12:09;;;;;;;11.80;7.00;;;10.10;99.90;;;;;;5116596;28;20203;-87
2022/10/03 00:14:47;;;;;;;15.70;7.50;;;10.10;99.90;;;;;;5115081;28;20233;-86
2022/10/03 00:17:21;;;;;;;17.60;7.70;;;10.00;99.90;;;;;;5116417;28;20622;-88
2022/10/03 00:20:00;;;;;;;18.90;10.05;;;9.90;99.90;;;;;;5115135;28;20449;-88
2022/10/03 00:22:37;;;;;;;13.07;7.60;;;10.10;99.90;;;;;;5115241;28;20289;-86
2022/10/03 00:25:27;;;;;;;14.80;7.60;;;10.10;99.90;;;;;;5116148;28;20205;-86
2022/10/03 00:28:07;;;;;;;13.43;7.93;;;10.00;99.90;;;;;;5115982;28;20197;-86
2022/10/03 00:30:53;;;;;;;12.03;7.90;;;9.90;99.90;;;;;;5115110;28;20200;-88
2022/10/03 00:33:30;;;;;;;11.53;7.50;;;9.80;99.90;;;;;;5114237;28;20259;-87
2022/10/03 00:36:07;;;;;;;13.97;7.20;;;9.80;99.90;;;;;;5115897;28;20218;-87
2022/10/03 00:38:54;;;;;;;11.07;7.57;;;9.80;99.90;;;;;;5115724;28;20220;-86
2022/10/03 00:41:46;;;;;;;19.15;9.52;;;9.80;99.90;;;;;;5115324;28;20436;-87
2022/10/03 00:44:52;;;;;;;15.83;7.90;;;9.80;99.90;;;;;;5115583;28;20567;-88
2022/10/03 00:47:42;;;;;;;15.10;8.00;;;9.80;99.90;;;;;;5115488;28;20206;-86
2022/10/03 00:50:34;;;;;;;12.03;7.53;;;9.80;99.90;;;;;;5116228;28;20219;-87
2022/10/03 00:53:23;;;;;;;11.47;7.90;;;9.80;99.90;;;;;;5109879;27;20200;-87
2022/10/03 00:56:16;;;;;;;15.47;8.07;;;9.80;99.90;;;;;;5115662;28;20261;-89
2022/10/03 00:59:04;;;;;;;13.17;7.40;;;9.90;99.90;;;;;;5115868;28;20216;-87
2022/10/03 01:01:36;;;;;;;17.23;8.80;;;9.90;99.90;;;;;;5115648;28;20192;-87
2022/10/03 01:04:35;;;;;;;15.82;10.40;;;9.80;99.90;;;;;;5115233;28;20416;-87
2022/10/03 01:07:12;;;;;;;15.23;8.47;;;9.90;99.90;;;;;;5114993;28;20663;-87
2022/10/03 01:09:47;;;;;;;12.67;7.93;;;9.90;99.90;;;;;;5115629;28;20200;-87
2022/10/03 01:12:45;;;;;;;12.87;8.50;;;9.80;99.90;;;;;;5115323;28;20744;-88
2022/10/03 01:15:25;;;;;;;13.47;8.50;;;9.70;99.90;;;;;;5114903;28;20204;-88
2022/10/03 01:18:09;;;;;;;15.30;8.53;;;9.60;99.90;;;;;;5114878;28;20591;-85
2022/10/03 01:20:41;;;;;;;15.87;7.83;;;9.50;99.90;;;;;;5115449;28;20602;-87
2022/10/03 01:23:48;;;;;;;9.43;6.93;;;9.50;99.90;;;;;;5115023;28;20208;-87
2022/10/03 01:26:33;;;;;;;13.33;7.93;;;9.60;99.90;;;;;;5114918;28;20212;-87
2022/10/03 01:32:01;;;;;;;13.83;7.50;;;9.50;99.90;;;;;;5095212;28;20227;-87
2022/10/03 01:34:34;;;;;;;18.13;8.50;;;9.50;99.90;;;;;;5114394;28;20212;-87
2022/10/03 01:37:10;;;;;;;16.03;8.43;;;9.40;99.90;;;;;;5114756;28;20208;-86
2022/10/03 01:39:42;;;;;;;13.73;8.07;;;9.40;99.90;;;;;;5114161;27;20626;-86
2022/10/03 01:42:17;;;;;;;11.77;8.00;;;9.40;99.90;;;;;;5114690;28;20201;-87
2022/10/03 01:45:12;;;;;;;15.93;8.50;;;9.40;99.90;;;;;;5114246;28;20288;-87
2022/10/03 01:47:50;;;;;;;13.77;7.80;;;9.50;99.90;;;;;;5114538;28;20318;-86
2022/10/03 01:50:24;;;;;;;14.10;7.57;;;9.50;99.90;;;;;;5114560;28;20203;-87
2022/10/03 01:52:56;;;;;;;12.40;7.73;;;9.50;99.90;;;;;;5114262;28;20615;-86
2022/10/03 01:55:33;;;;;;;10.87;7.77;;;9.40;99.90;;;;;;5114479;28;20219;-86
2022/10/03 01:58:08;;;;;;;11.77;7.60;;;9.40;99.90;;;;;;5113904;28;20223;-87
2022/10/03 02:00:44;;;;;;;11.47;8.30;;;9.40;99.90;;;;;;5114493;28;20208;-86
2022/10/03 02:03:16;;;;;;;13.63;8.33;;;9.50;99.90;;;;;;5114302;28;20231;-87
2022/10/03 02:05:54;;;;;;;15.20;8.10;;;9.30;99.90;;;;;;5113799;28;20209;-88
2022/10/03 02:08:34;;;;;;;17.07;8.53;;;9.20;99.90;;;;;;5114401;28;20245;-87
2022/10/03 02:11:03;;;;;;;13.88;9.07;;;9.20;99.90;;;;;;5114231;28;20427;-87
2022/10/03 02:13:41;;;;;;;12.07;8.57;;;9.30;99.90;;;;;;5113863;28;20200;-86
2022/10/03 02:16:14;;;;;;;10.43;7.83;;;9.30;99.90;;;;;;5114388;28;20207;-88
2022/10/03 02:18:47;;;;;;;12.67;7.57;;;9.30;99.90;;;;;;5113643;28;20695;-87
2022/10/03 02:21:19;;;;;;;14.17;8.57;;;9.30;99.90;;;;;;5114052;28;20208;-87
2022/10/03 02:23:47;;;;;;;12.23;8.53;;;9.30;99.90;;;;;;5114065;28;20253;-86
2022/10/03 02:27:01;;;;;;;13.77;8.63;;;9.20;99.90;;;;;;5114355;28;20204;-87
2022/10/03 02:29:49;;;;;;;12.57;8.77;;;9.30;99.90;;;;;;5113476;28;20660;-87
2022/10/03 02:32:52;;;;;;;14.30;8.00;;;9.20;99.90;;;;;;5113949;28;20200;-89
2022/10/03 02:35:50;;;;;;;15.77;7.83;;;9.20;99.90;;;;;;5113795;28;20208;-87
2022/10/03 02:38:39;;;;;;;10.77;7.80;;;9.10;99.90;;;;;;5114099;28;20227;-87
2022/10/03 02:41:40;;;;;;;16.60;8.67;;;9.10;99.90;;;;;;5113811;28;20204;-87
2022/10/03 02:44:34;;;;;;;15.03;8.63;;;9.30;99.90;;;;;;5113421;28;20587;-86
2022/10/03 02:47:41;;;;;;;14.87;8.40;;;9.20;99.90;;;;;;5113336;28;20208;-87
2022/10/03 02:50:47;;;;;;;14.60;7.97;;;9.20;99.90;;;;;;5101763;28;20231;-87
2022/10/03 02:53:50;;;;;;;12.13;8.37;;;9.20;99.90;;;;;;5113482;27;20200;-87
2022/10/03 02:56:45;;;;;;;17.45;10.45;;;9.10;99.90;;;;;;5112839;28;20927;-88
2022/10/03 02:59:46;;;;;;;16.20;7.90;;;9.20;99.90;;;;;;5112993;28;20682;-86
2022/10/03 03:02:38;;;;;;;11.00;7.87;;;9.10;99.90;;;;;;5113778;28;20227;-87
2022/10/03 03:05:25;;;;;;;13.93;8.00;;;9.10;99.90;;;;;;5104481;27;20200;-87
2022/10/03 03:08:28;;;;;;;16.47;8.27;;;9.10;99.90;;;;;;5113601;28;20265;-87
2022/10/03 03:11:26;;;;;;;13.37;8.80;;;9.00;99.90;;;;;;5113406;28;20200;-87
2022/10/03 03:14:25;;;;;;;12.17;7.97;;;9.00;99.90;;;;;;5113435;28;20205;-86
2022/10/03 03:17:22;;;;;;;17.43;8.63;;;9.00;99.90;;;;;;5113657;28;20196;-86
2022/10/03 03:20:13;;;;;;;13.87;8.47;;;8.80;99.90;;;;;;5117237;28;20226;-89
2022/10/03 03:22:53;;;;;;;18.23;8.37;;;8.90;99.90;;;;;;5117737;28;20216;-87
2022/10/03 03:25:34;;;;;;;11.60;7.60;;;8.90;99.90;;;;;;5117237;28;20599;-87
2022/10/03 03:28:19;;;;;;;13.27;8.63;;;9.00;99.90;;;;;;5117207;28;20189;-87
2022/10/03 03:30:56;;;;;;;12.43;8.20;;;8.90;99.90;;;;;;5117417;28;20261;-87
2022/10/03 03:33:33;;;;;;;15.43;7.80;;;8.80;99.90;;;;;;5117533;28;20189;-87
2022/10/03 03:36:10;;;;;;;11.47;7.97;;;8.80;99.90;;;;;;5115568;28;20204;-87
2022/10/03 03:38:47;;;;;;;11.40;7.87;;;8.80;99.90;;;;;;5117258;28;20196;-93
2022/10/03 03:41:30;;;;;;;10.50;8.43;;;8.80;99.90;;;;;;5116956;28;20663;-87
2022/10/03 03:44:24;;;;;;;12.63;8.30;;;8.80;99.90;;;;;;5117092;28;20266;-92
2022/10/03 03:47:09;;;;;;;16.03;8.37;;;8.50;99.90;;;;;;5117587;28;20196;-87
2022/10/03 03:50:05;;;;;;;13.90;8.80;;;8.60;99.90;;;;;;5117069;28;20204;-91
2022/10/03 03:52:50;;;;;;;12.13;7.87;;;8.60;99.90;;;;;;5115033;28;20204;-86
2022/10/03 03:55:31;;;;;;;12.03;8.07;;;8.70;99.90;;;;;;5117556;28;20192;-91
2022/10/03 03:58:18;;;;;;;14.33;8.63;;;8.60;99.90;;;;;;5116779;28;20192;-86
2022/10/03 04:01:00;;;;;;;15.67;9.27;;;8.70;99.90;;;;;;5117233;28;20228;-87
2022/10/03 04:03:37;;;;;;;13.63;8.03;;;8.70;99.90;;;;;;5117360;28;20579;-87
2022/10/03 04:06:31;;;;;;;10.63;8.43;;;8.60;99.90;;;;;;5117457;27;20197;-93
2022/10/03 04:09:22;;;;;;;16.00;8.03;;;8.70;99.90;;;;;;5116662;28;20537;-90
2022/10/03 04:12:08;;;;;;;17.70;8.50;;;8.80;99.90;;;;;;5117245;28;20204;-92
2022/10/03 04:14:57;;;;;;;15.30;8.47;;;8.70;99.90;;;;;;5117641;28;20643;-91
2022/10/03 04:20:57;;;;;;;11.70;7.47;;;8.60;99.90;;;;;;5117191;28;20333;-93
2022/10/03 04:23:49;;;;;;;13.67;8.27;;;8.60;99.90;;;;;;5117508;28;20199;-93
2022/10/03 04:26:41;;;;;;;12.83;8.07;;;8.50;99.90;;;;;;5116807;28;20201;-91
2022/10/03 04:29:40;;;;;;;16.43;7.33;;;8.50;99.90;;;;;;5116726;27;20189;-91
2022/10/03 04:32:18;;;;;;;17.03;8.33;;;8.50;99.90;;;;;;5111770;28;20201;-93
2022/10/03 04:34:57;;;;;;;13.03;8.33;;;8.50;99.90;;;;;;5116559;28;20673;-93
2022/10/03 04:37:34;;;;;;;12.27;8.47;;;8.50;99.90;;;;;;5116645;27;20193;-93
2022/10/03 04:40:21;;;;;;;9.10;7.47;;;8.40;99.90;;;;;;5116874;28;20596;-93
2022/10/03 04:42:57;;;;;;;12.93;8.10;;;8.40;99.90;;;;;;5116648;28;20196;-93
2022/10/03 04:45:38;;;;;;;17.97;8.63;;;8.50;99.90;;;;;;5116317;28;20220;-92
2022/10/03 04:48:15;;;;;;;11.47;8.10;;;8.50;99.90;;;;;;5117166;28;20215;-93
2022/10/03 04:50:49;;;;;;;14.57;8.13;;;8.40;99.90;;;;;;5116622;28;20204;-93
2022/10/03 04:53:28;;;;;;;14.90;8.17;;;8.50;99.90;;;;;;5116420;28;20213;-92
2022/10/03 04:56:04;;;;;;;11.03;7.77;;;8.50;99.90;;;;;;5116650;28;20193;-93
2022/10/03 04:58:38;;;;;;;11.63;7.90;;;8.40;99.90;;;;;;5116302;28;20231;-93
2022/10/03 05:01:14;;;;;;;14.27;8.67;;;8.40;99.90;;;;;;5111820;28;20705;-92
2022/10/03 05:03:47;;;;;;;14.10;8.10;;;8.50;99.90;;;;;;5115960;28;20228;-92
2022/10/03 05:06:32;;;;;;;13.40;8.57;;;8.40;99.90;;;;;;5113670;28;20196;-89
2022/10/03 05:09:11;;;;;;;15.27;8.53;;;8.40;99.90;;;;;;5095314;28;20189;-92
2022/10/03 05:11:47;;;;;;;15.97;8.87;;;8.40;99.90;;;;;;5095338;28;20212;-92
2022/10/03 05:15:01;;;;;;;12.47;8.43;;;8.50;99.90;;;;;;5096526;28;20185;-92
2022/10/03 05:17:44;;;;;;;20.20;13.25;;;8.40;99.90;;;;;;5094007;28;20917;-92
2022/10/03 05:20:22;;;;;;;17.20;9.67;;;8.60;99.90;;;;;;5095581;28;20213;-91
2022/10/03 05:22:57;;;;;;;17.27;9.00;;;8.60;99.90;;;;;;5094955;28;20189;-87
2022/10/03 05:25:40;;;;;;;15.77;9.57;;;8.50;99.90;;;;;;5095269;28;20204;-91
2022/10/03 05:28:20;;;;;;;15.93;8.87;;;8.40;99.90;;;;;;5095400;28;20209;-93
2022/10/03 05:31:23;;;;;;;15.70;8.33;;;8.50;99.90;;;;;;5095547;28;20197;-93
2022/10/03 05:34:10;;;;;;;16.97;8.77;;;8.50;99.90;;;;;;5095143;28;20197;-91
2022/10/03 05:36:57;;;;;;;10.17;8.40;;;8.40;99.90;;;;;;5094709;28;20209;-89
2022/10/03 05:39:36;;;;;;;13.43;9.00;;;8.30;99.90;;;;;;5094467;28;20201;-93
2022/10/03 05:42:35;;;;;;;12.23;8.43;;;8.30;99.90;;;;;;5094822;28;20235;-92
2022/10/03 05:45:08;;;;;;;12.63;8.53;;;8.30;99.90;;;;;;5094457;28;20208;-90
2022/10/03 05:47:49;;;;;;;15.27;10.23;;;8.40;99.90;;;;;;5094765;28;20201;-91
2022/10/03 05:50:49;;;;;;;13.17;9.67;;;8.40;99.90;;;;;;5094685;28;20195;-90
2022/10/03 05:53:32;;;;;;;11.83;9.40;;;8.40;99.90;;;;;;5094500;28;20192;-93
2022/10/03 05:56:08;;;;;;;15.70;10.10;;;8.30;99.90;;;;;;5094796;28;20636;-92
2022/10/03 05:59:16;;;;;;;15.87;8.23;;;8.30;99.90;;;;;;5102049;28;20187;-92
2022/10/03 06:02:11;;;;;;;11.90;9.03;;;8.30;99.90;;;;;;5032246;28;20214;-93
2022/10/03 06:05:03;;;;;;;18.85;13.00;;;8.30;99.90;;;;;;5106573;28;20432;-93
2022/10/03 06:07:45;;;;;;;11.73;9.53;;;8.30;99.90;;;;;;5101976;28;20230;-91
2022/10/03 06:10:34;;;;;;;14.80;8.43;;;8.40;99.90;;;;;;5113256;28;20200;-87
2022/10/03 06:13:13;;;;;;;11.50;8.57;;;8.40;99.90;;;;;;5110349;28;20220;-88
2022/10/03 06:15:53;;;;;;;12.70;8.57;;;8.40;99.90;;;;;;5114988;28;20196;-90
2022/10/03 06:18:53;;;;;;;15.60;9.10;;;8.40;99.90;;;;;;5114544;28;20207;-93
2022/10/03 06:21:46;;;;;;;12.13;8.23;;;8.40;99.90;;;;;;5114323;28;20216;-92
2022/10/03 06:24:55;;;;;;;12.40;8.17;;;8.50;99.90;;;;;;5114343;28;20211;-92
2022/10/03 06:27:50;;;;;;;12.67;9.90;;;8.40;99.90;;;;;;5085670;28;20937;-92
2022/10/03 06:30:22;;;;;;;13.97;8.50;;;8.40;99.90;;;;;;5109373;28;20940;-92
2022/10/03 06:33:24;;;;;;;10.83;8.20;;;8.40;99.90;;;;;;5115009;28;20188;-90
2022/10/03 06:36:27;;;;;;;11.47;7.93;;;8.50;99.90;;;;;;5114838;28;20770;-90
2022/10/03 06:39:27;;;;;;;11.80;8.67;;;8.60;99.90;;;;;;5115422;28;20717;-92
2022/10/03 06:42:26;;;;;;;11.97;8.13;;;8.60;99.90;;;;;;5115795;28;20207;-87
2022/10/03 06:45:35;;;;;;;11.27;7.90;;;8.50;99.90;;;;;;5124565;28;20200;-90
2022/10/03 06:48:24;;;;;;;10.30;8.10;;;8.50;99.90;;;;;;5129920;28;20224;-89
2022/10/03 06:51:00;;;;;;;13.07;8.47;;;8.40;99.90;;;;;;5124935;28;20211;-86
2022/10/03 06:53:58;;;;;;;10.17;8.47;;;8.50;99.90;;;;;;5128462;28;20192;-90
2022/10/03 06:57:04;;;;;;;11.77;8.27;;;8.50;99.90;;;;;;5086400;28;20220;-87
2022/10/03 06:59:56;;;;;;;18.90;8.57;;;8.50;99.90;;;;;;5044199;28;20641;-88
2022/10/03 07:03:03;;;;;;;12.27;8.13;;;8.60;99.90;;;;;;5127520;28;20216;-90
2022/10/03 07:06:07;;;;;;;10.10;7.67;;;8.80;99.90;;;;;;5118240;28;20565;-89
2022/10/03 07:09:10;;;;;;;9.93;8.17;;;8.70;99.90;;;;;;5117683;28;20196;-90
2022/10/03 07:12:05;;;;;;;13.33;8.20;;;8.80;99.90;;;;;;5114244;28;20196;-91
2022/10/03 07:15:06;;;;;;;12.93;10.02;;;9.00;99.90;;;;;;5098387;28;20860;-91
2022/10/03 07:17:58;;;;;;;15.80;8.73;;;9.10;99.90;;;;;;5098485;28;20203;-87
2022/10/03 07:21:04;;;;;;;13.87;8.90;;;8.90;99.90;;;;;;5097294;28;20221;-85
2022/10/03 07:24:06;;;;;;;11.37;8.40;;;9.10;99.90;;;;;;5090710;28;20274;-90
2022/10/03 07:27:10;;;;;;;13.37;8.33;;;9.20;99.90;;;;;;5112661;28;20203;-87
2022/10/03 07:30:05;;;;;;;13.00;8.13;;;9.40;99.90;;;;;;5117084;28;20195;-86
2022/10/03 07:33:12;;;;;;;9.07;7.57;;;9.40;99.90;;;;;;5117375;28;20200;-85
2022/10/03 07:39:16;;;;;;;11.57;7.90;;;9.60;99.90;;;;;;5117559;28;20192;-85
2022/10/03 07:42:06;;;;;;;10.27;7.83;;;9.80;99.90;;;;;;5117102;28;20247;-86
2022/10/03 07:45:08;;;;;;;11.70;8.70;;;9.80;99.90;;;;;;5075801;28;20209;-86
2022/10/03 07:48:12;;;;;;;14.53;8.70;;;10.00;99.90;;;;;;5116802;28;20203;-86
2022/10/03 07:51:00;;;;;;;12.63;8.03;;;10.00;99.90;;;;;;5115589;28;20215;-87
2022/10/03 07:54:14;;;;;;;10.97;8.07;;;10.00;99.90;;;;;;5117119;28;20193;-87
2022/10/03 07:57:19;;;;;;;11.20;7.93;;;10.10;99.90;;;;;;5034569;28;20202;-87
2022/10/03 08:00:15;;;;;;;20.47;9.20;;;10.30;99.90;;;;;;5115894;28;20568;-85
2022/10/03 08:03:02;;;;;;;12.80;8.30;;;10.30;99.90;;;;;;5116232;28;20644;-86
2022/10/03 08:05:43;;;;;;;13.43;8.60;;;10.40;99.90;;;;;;5103555;28;20205;-86
2022/10/03 08:08:31;;;;;;;12.70;8.67;;;10.50;99.90;;;;;;5116996;28;20232;-85
2022/10/03 08:11:14;;;;;;;11.97;8.87;;;10.60;99.90;;;;;;5116716;27;20301;-87
2022/10/03 08:14:00;;;;;;;9.57;8.00;;;10.70;99.90;;;;;;5116722;28;20197;-85
2022/10/03 08:16:57;;;;;;;14.80;8.80;;;10.70;99.90;;;;;;5116236;28;20284;-85
2022/10/03 08:19:50;;;;;;;10.70;8.03;;;10.90;99.90;;;;;;5116546;28;20482;-85
2022/10/03 08:22:31;;;;;;;12.10;8.30;;;10.90;99.90;;;;;;5116284;28;20217;-85
2022/10/03 08:25:27;;;;;;;12.23;8.30;;;11.10;99.90;;;;;;5116362;28;20646;-85
2022/10/03 08:28:21;;;;;;;14.85;8.77;;;11.30;99.90;;;;;;5115760;28;20433;-86
2022/10/03 08:31:31;;;;;;;11.47;8.23;;;11.50;99.90;;;;;;5116009;28;20558;-87
2022/10/03 08:34:36;;;;;;;11.23;7.07;;;11.60;99.90;;;;;;5108732;27;20203;-86
2022/10/03 08:37:32;;;;;;;11.63;8.03;;;11.80;99.90;;;;;;5116093;28;20215;-85
2022/10/03 08:40:32;;;;;;;14.43;8.27;;;11.90;99.90;;;;;;5116458;28;20249;-85
2022/10/03 08:43:34;;;;;;;12.37;7.70;;;12.00;99.90;;;;;;5116304;28;20211;-86
2022/10/03 08:46:20;;;;;;;18.30;8.03;;;12.00;99.90;;;;;;5115541;28;20210;-86
2022/10/03 08:49:11;;;;;;;12.87;7.77;;;12.10;99.90;;;;;;5116015;28;20206;-85
2022/10/03 08:52:02;;;;;;;12.40;7.47;;;12.30;99.90;;;;;;5115597;28;20214;-85
2022/10/03 08:55:18;;;;;;;16.43;7.73;;;12.60;99.90;;;;;;5115713;28;20643;-85
2022/10/03 08:58:23;;;;;;;10.77;7.30;;;12.80;99.90;;;;;;5053073;28;20635;-85
2022/10/03 09:01:10;;;;;;;15.67;7.53;;;12.90;99.90;;;;;;5067495;28;20690;-86
2022/10/03 09:04:25;;;;;;;13.40;7.00;;;13.00;99.90;;;;;;5115502;28;20583;-87
2022/10/03 09:07:33;;;;;;;12.97;7.57;;;13.20;99.90;;;;;;5052930;28;20325;-85
2022/10/03 09:10:33;;;;;;;10.70;6.40;;;13.40;99.90;;;;;;5115050;28;20208;-85
2022/10/03 09:13:33;;;;;;;14.37;7.17;;;13.50;99.90;;;;;;5115163;28;20200;-87
2022/10/03 09:16:46;;;;;;;16.00;6.80;;;13.70;99.90;;;;;;5110807;28;20212;-86
2022/10/03 09:19:40;;;;;;;15.05;7.53;;;13.80;99.90;;;;;;5113827;28;20417;-84
2022/10/03 09:22:32;;;;;;;13.90;6.77;;;14.20;99.90;;;;;;5112145;28;20231;-85
2022/10/03 09:25:20;;;;;;;10.60;6.67;;;14.30;99.90;;;;;;5113725;28;20560;-85
2022/10/03 09:28:24;;;;;;;14.17;6.63;;;14.70;99.90;;;;;;5109477;28;20210;-84
2022/10/03 09:31:03;;;;;;;14.80;6.50;;;14.90;99.90;;;;;;5115070;28;20205;-84
2022/10/03 09:34:01;;;;;;;12.17;5.83;;;15.00;99.90;;;;;;5114995;28;20203;-82
2022/10/03 09:37:01;;;;;;;16.73;5.87;;;15.30;99.90;;;;;;5114697;28;20220;-84
2022/10/03 09:39:59;;;;;;;9.50;5.33;;;15.40;99.90;;;;;;5114574;28;20210;-83
2022/10/03 09:42:56;;;;;;;12.93;5.83;;;15.30;99.90;;;;;;5114089;27;20211;-82
2022/10/03 09:45:43;;;;;;;14.33;6.37;;;15.30;99.90;;;;;;5114590;28;20261;-82
2022/10/03 09:48:27;;;;;;;11.77;5.30;;;15.30;99.90;;;;;;5114408;28;20208;-84
2022/10/03 09:51:14;;;;;;;13.23;5.47;;;15.40;99.90;;;;;;5114524;28;20196;-80
2022/10/03 09:54:22;;;;;;;9.23;4.40;;;15.60;99.90;;;;;;5114008;28;20207;-80
2022/10/03 09:57:17;;;;;;;9.60;5.30;;;15.60;99.90;;;;;;5114317;28;20246;-80
2022/10/03 10:00:00;;;;;;;7.33;4.93;;;15.60;99.90;;;;;;5114114;28;20216;-78
2022/10/03 10:02:55;;;;;;;12.00;4.87;;;15.90;99.90;;;;;;5113888;28;20260;-80
2022/10/03 10:05:48;;;;;;;9.87;4.30;;;16.10;99.90;;;;;;5114051;28;20200;-80
2022/10/03 10:08:35;;;;;;;12.10;4.60;;;16.00;99.90;;;;;;5114040;28;20211;-80
2022/10/03 10:11:22;;;;;;;11.90;4.40;;;16.10;99.90;;;;;;5114216;28;20208;-80
2022/10/03 10:14:22;;;;;;;10.27;4.20;;;16.30;99.90;;;;;;5113419;28;20212;-79
2022/10/03 10:17:34;;;;;;;13.80;5.17;;;16.40;99.90;;;;;;5114083;28;20203;-80
2022/10/03 10:20:20;;;;;;;15.00;5.47;;;16.50;99.90;;;;;;5113784;28;20636;-80
2022/10/03 10:23:21;;;;;;;11.93;4.80;;;16.70;99.90;;;;;;5113535;28;20226;-79
2022/10/03 10:26:15;;;;;;;11.50;5.07;;;16.90;99.90;;;;;;5110602;27;20202;-79
2022/10/03 10:29:08;;;;;;;9.83;4.73;;;17.00;99.90;;;;;;5109995;28;20207;-80
2022/10/03 10:32:12;;;;;;;14.87;4.93;;;16.70;99.90;;;;;;5113658;28;20207;-79
2022/10/03 10:35:14;;;;;;;9.73;4.40;;;16.90;99.90;;;;;;5113129;28;20269;-80
2022/10/03 10:38:24;;;;;;;9.83;4.80;;;17.00;99.90;;;;;;5113624;28;20283;-80
2022/10/03 10:41:28;;;;;;;11.47;4.17;;;16.80;99.90;;;;;;5113442;28;20248;-81
2022/10/03 10:44:35;;;;;;;12.67;3.77;;;16.70;99.90;;;;;;5113390;28;20202;-79
2022/10/03 10:47:39;;;;;;;12.90;3.50;;;16.80;99.90;;;;;;5113589;28;20207;-80
2022/10/03 10:50:46;;;;;;;13.83;3.47;;;16.90;99.90;;;;;;5113521;28;20209;-80
2022/10/03 10:53:50;;;;;;;13.50;3.30;;;16.70;99.90;;;;;;5113371;28;20205;-80
2022/10/03 10:56:58;;;;;;;8.70;2.77;;;16.60;99.90;;;;;;5113513;28;20190;-81
2022/10/03 11:00:00;;;;;;;15.02;4.35;;;16.50;99.90;;;;;;5112073;28;20425;-80
2022/10/03 11:03:12;;;;;;;11.43;3.23;;;17.00;99.90;;;;;;5112936;28;20319;-80
2022/10/03 11:06:02;;;;;;;11.90;3.07;;;17.20;99.90;;;;;;5113158;28;20255;-81
2022/10/03 11:09:25;;;;;;;15.37;3.40;;;17.00;99.90;;;;;;5113582;28;20199;-80
2022/10/03 11:12:22;;;;;;;6.53;2.67;;;16.90;99.90;;;;;;5092427;27;20207;-80
2022/10/03 11:15:37;;;;;;;8.87;2.93;;;16.90;99.90;;;;;;5113150;28;20191;-80
2022/10/03 11:18:32;;;;;;;7.53;2.87;;;17.00;99.90;;;;;;5113233;28;20210;-81
2022/10/03 11:21:33;;;;;;;5.63;2.97;;;16.80;99.90;;;;;;5113336;28;20213;-81
2022/10/03 11:24:27;;;;;;;7.70;2.80;;;17.00;99.90;;;;;;5113282;28;20665;-81
2022/10/03 11:27:35;;;;;;;7.10;2.37;;;17.10;99.90;;;;;;5113207;28;20198;-80
2022/10/03 11:30:22;;;;;;;7.40;2.30;;;17.00;99.90;;;;;;5113174;28;20520;-80
2022/10/03 11:33:35;;;;;;;7.07;2.03;;;17.10;99.90;;;;;;5112843;28;20198;-80
2022/10/03 11:36:32;;;;;;;5.83;1.20;;;17.10;99.90;;;;;;5112903;28;20591;-80
2022/10/03 11:39:04;;;;;;;6.50;1.80;;;17.00;99.90;;;;;;5104213;27;20206;-80
2022/10/03 11:41:40;;;;;;;7.53;2.07;;;17.00;99.90;;;;;;5116648;28;20773;-80
2022/10/03 11:44:18;;;;;;;6.33;2.00;;;17.10;99.90;;;;;;5116871;28;20202;-80
2022/10/03 11:47:14;;;;;;;6.57;2.20;;;17.30;99.90;;;;;;5116678;28;20216;-80
2022/10/03 11:50:22;;;;;;;9.15;2.55;;;17.40;99.90;;;;;;5112906;28;20490;-80
2022/10/03 11:53:13;;;;;;;7.67;2.03;;;17.50;99.90;;;;;;5053647;28;20202;-80
2022/10/03 11:55:43;;;;;;;11.13;2.67;;;17.60;99.90;;;;;;5114659;27;20196;-79
2022/10/03 11:58:40;;;;;;;9.23;2.10;;;17.80;99.90;;;;;;5116613;28;20192;-80
2022/10/03 12:01:21;;;;;;;10.37;2.83;;;18.00;99.90;;;;;;5116260;28;20200;-80
2022/10/03 12:03:54;;;;;;;7.30;2.63;;;17.90;99.90;;;;;;5116092;28;20223;-79
2022/10/03 12:09:34;;;;;;;8.37;2.63;;;17.40;99.90;;;;;;5116354;28;20226;-80
2022/10/03 12:12:09;;;;;;;9.30;2.20;;;17.10;99.90;;;;;;5116191;28;20210;-80
2022/10/03 12:14:43;;;;;;;8.18;2.60;;;17.10;99.90;;;;;;5115092;28;20436;-80
2022/10/03 12:17:14;;;;;;;6.47;2.20;;;17.40;99.90;;;;;;5116366;28;20263;-80
2022/10/03 12:19:53;;;;;;;10.57;2.53;;;17.60;99.90;;;;;;5116089;28;20577;-80
2022/10/03 12:22:32;;;;;;;16.73;2.67;;;17.60;99.90;;;;;;5115801;28;20218;-80
2022/10/03 12:25:13;;;;;;;6.60;2.60;;;17.70;99.90;;;;;;5115844;28;20670;-80
2022/10/03 12:27:58;;;;;;;9.27;3.20;;;17.70;99.90;;;;;;5114640;28;20204;-80
2022/10/03 12:30:31;;;;;;;6.50;2.63;;;17.80;99.90;;;;;;5116138;28;20189;-79
2022/10/03 12:33:20;;;;;;;9.13;2.57;;;17.80;99.90;;;;;;5115770;28;20207;-79
2022/10/03 12:35:54;;;;;;;6.80;2.33;;;18.10;99.90;;;;;;5115567;28;20278;-80
2022/10/03 12:38:38;;;;;;;10.80;2.63;;;17.90;99.90;;;;;;5115665;28;20197;-83
2022/10/03 12:41:21;;;;;;;8.80;2.53;;;17.90;99.90;;;;;;5115513;28;20547;-80
2022/10/03 12:44:03;;;;;;;8.17;2.60;;;18.00;99.90;;;;;;5115587;28;20204;-79
2022/10/03 12:46:38;;;;;;;7.43;2.17;;;18.20;99.90;;;;;;5115487;28;20268;-79
2022/10/03 12:49:11;;;;;;;4.80;1.93;;;18.00;99.90;;;;;;5115284;28;20196;-79
2022/10/03 12:51:51;;;;;;;25.60;3.20;;;18.00;99.90;;;;;;5115092;28;20203;-79
2022/10/03 12:54:32;;;;;;;358.20;23.83;;;18.20;99.90;;;;;;5115622;28;20201;-79
2022/10/03 12:57:22;;;;;;;14.50;3.13;;;18.00;99.90;;;;;;5115175;28;20637;-79
2022/10/03 13:00:00;;;;;;;3.97;1.83;;;18.20;99.90;;;;;;5115391;28;20207;-79
2022/10/03 13:02:34;;;;;;;6.60;2.10;;;18.60;99.90;;;;;;5114975;27;20236;-79
2022/10/03 13:05:32;;;;;;;163.23;11.80;;;18.60;99.90;;;;;;5115011;28;20541;-79
2022/10/03 13:08:03;;;;;;;5.13;2.20;;;19.10;99.90;;;;;;5114576;28;20189;-79
2022/10/03 13:10:40;;;;;;;5.60;2.10;;;19.30;99.90;;;;;;5115221;28;20197;-79
2022/10/03 13:13:22;;;;;;;5.67;2.30;;;19.00;99.90;;;;;;5114828;28;20663;-79
2022/10/03 13:16:23;;;;;;;10.33;2.50;;;18.70;99.90;;;;;;5114586;28;20207;-79
2022/10/03 13:18:59;;;;;;;9.17;2.00;;;18.40;99.90;;;;;;5114850;28;20200;-80
2022/10/03 13:21:40;;;;;;;7.33;2.10;;;18.50;99.90;;;;;;5114732;28;20276;-80
2022/10/03 13:24:19;;;;;;;13.17;2.30;;;18.60;99.90;;;;;;5115072;28;20292;-79
2022/10/03 13:26:54;;;;;;;9.30;2.10;;;19.00;99.90;;;;;;5114774;28;20231;-79
2022/10/03 13:29:28;;;;;;;6.77;2.40;;;19.30;99.90;;;;;;5114737;28;20586;-79
2022/10/03 13:32:15;;;;;;;14.55;3.33;;;19.60;99.90;;;;;;5114091;28;20443;-81
2022/10/03 13:35:57;;;;;;;11.27;2.80;;;19.50;99.90;;;;;;5114480;28;20211;-82
2022/10/03 13:38:16;;;;;;;10.67;2.83;;;19.30;99.90;;;;;;5114211;28;20560;-81
2022/10/03 13:40:48;;;;;;;8.73;2.13;;;19.70;99.90;;;;;;5114519;28;20546;-81
2022/10/03 13:43:22;;;;;;;6.43;2.33;;;19.80;99.90;;;;;;5114399;28;20256;-81
2022/10/03 13:45:55;;;;;;;6.97;2.63;;;19.60;99.90;;;;;;5114346;28;20239;-81
2022/10/03 13:48:25;;;;;;;6.60;2.00;;;19.60;99.90;;;;;;5114033;28;20193;-81
2022/10/03 13:51:00;;;;;;;5.30;2.00;;;19.80;99.90;;;;;;5114432;28;20200;-81
2022/10/03 13:53:42;;;;;;;6.77;2.17;;;19.50;99.90;;;;;;5114037;28;20742;-79
2022/10/03 13:56:13;;;;;;;3.73;1.80;;;19.40;99.90;;;;;;5113993;28;20652;-81
2022/10/03 13:58:49;;;;;;;8.50;2.50;;;19.20;99.90;;;;;;5114179;28;20193;-81
2022/10/03 14:01:33;;;;;;;3.47;1.57;;;19.20;99.90;;;;;;5114058;28;20192;-82
2022/10/03 14:04:37;;;;;;;8.17;2.40;;;19.20;99.90;;;;;;5113727;28;20236;-82
2022/10/03 14:07:14;;;;;;;7.10;2.30;;;19.30;99.90;;;;;;5062058;28;20202;-81
2022/10/03 14:10:07;;;;;;;10.43;2.27;;;19.10;99.90;;;;;;5114100;28;20210;-80
2022/10/03 14:12:48;;;;;;;4.60;2.10;;;19.30;99.90;;;;;;5113993;28;20188;-79
2022/10/03 14:15:29;;;;;;;6.53;1.90;;;19.50;99.90;;;;;;5113941;28;20643;-80
2022/10/03 14:18:10;;;;;;;8.47;1.90;;;19.70;99.90;;;;;;5113908;28;20201;-81
2022/10/03 14:21:00;;;;;;;10.83;2.23;;;19.50;99.90;;;;;;5113865;28;20192;-81
2022/10/03 14:23:34;;;;;;;6.57;2.40;;;19.50;99.90;;;;;;5113153;28;20456;-81
2022/10/03 14:26:07;;;;;;;4.50;2.10;;;19.60;99.90;;;;;;5113765;28;20204;-82
2022/10/03 14:28:40;;;;;;;5.17;2.10;;;19.60;99.90;;;;;;5114001;28;20187;-81
2022/10/03 14:31:16;;;;;;;10.03;2.50;;;19.40;99.90;;;;;;5114052;28;20212;-81
2022/10/03 14:33:49;;;;;;;9.10;2.20;;;19.80;99.90;;;;;;5113488;28;20204;-81
2022/10/03 14:36:28;;;;;;;7.53;2.33;;;19.50;99.90;;;;;;5113644;28;20208;-81
2022/10/03 14:39:20;;;;;;;7.53;2.13;;;19.80;99.90;;;;;;5113699;28;20200;-81
2022/10/03 14:42:05;;;;;;;19.97;2.87;;;20.10;99.90;;;;;;5113585;28;20211;-81
2022/10/03 14:44:39;;;;;;;12.50;2.30;;;20.60;99.90;;;;;;5113443;28;20553;-81